Time;durP1;ratioP1;P1;durP2;ratioP2;P2;SDS_P1;SDS_P2;PMS_P1;PMS_P2;Temp;Humidity;BMP_temperature;BMP_pressure;BME280_temperature;BME280_humidity;BME280_pressure;Samples;Min_cycle;Max_cycle;Signal;HPM_P1;HPM_P2
2021/07/11 00:01:31;;;;;;;10.05;8.73;;;23.70;70.90;;;;;;5096073;28;20030;-89
2021/07/11 00:03:56;;;;;;;10.45;7.82;;;23.60;70.90;;;;;;5096267;28;20030;-91
2021/07/11 00:06:22;;;;;;;9.27;7.80;;;23.60;71.10;;;;;;5096069;28;20023;-90
2021/07/11 00:08:48;;;;;;;12.27;9.85;;;23.60;71.20;;;;;;5096026;28;20024;-90
2021/07/11 00:11:13;;;;;;;11.77;8.98;;;23.60;71.30;;;;;;5095924;28;20023;-91
2021/07/11 00:13:39;;;;;;;11.05;9.07;;;23.60;71.40;;;;;;5114679;28;20027;-90
2021/07/11 00:16:06;;;;;;;12.05;8.55;;;23.60;71.50;;;;;;5096737;28;20020;-92
2021/07/11 00:18:31;;;;;;;11.88;9.40;;;23.50;71.70;;;;;;5097455;28;20043;-92
2021/07/11 00:20:57;;;;;;;12.15;9.15;;;23.50;72.10;;;;;;5100345;28;20390;-91
2021/07/11 00:23:23;;;;;;;10.98;8.40;;;23.40;72.20;;;;;;5100321;28;20377;-91
2021/07/11 00:25:48;;;;;;;10.95;8.30;;;23.40;72.30;;;;;;5100278;28;20099;-91
2021/07/11 00:28:14;;;;;;;9.82;8.00;;;23.40;72.60;;;;;;5100372;28;20035;-91
2021/07/11 00:30:40;;;;;;;9.10;7.75;;;23.40;72.70;;;;;;5100932;28;20123;-90
2021/07/11 00:33:06;;;;;;;9.32;7.95;;;23.30;72.90;;;;;;5100968;28;20358;-91
2021/07/11 00:35:31;;;;;;;9.93;7.65;;;23.30;73.10;;;;;;5100151;28;20023;-92
2021/07/11 00:37:57;;;;;;;8.70;7.25;;;23.30;73.30;;;;;;5099612;28;20023;-92
2021/07/11 00:40:23;;;;;;;9.45;7.88;;;23.20;73.50;;;;;;5100022;28;20085;-91
2021/07/11 00:42:49;;;;;;;10.60;7.63;;;23.20;73.80;;;;;;5099937;28;20116;-91
2021/07/11 00:45:15;;;;;;;10.80;8.40;;;23.20;73.80;;;;;;5099893;28;20027;-92
2021/07/11 00:47:41;;;;;;;10.00;8.63;;;23.20;74.00;;;;;;5100051;28;20076;-90
2021/07/11 00:50:14;;;;;;;9.45;8.10;;;23.20;74.20;;;;;;5099822;28;20123;-92
2021/07/11 00:52:40;;;;;;;10.10;8.45;;;23.10;74.70;;;;;;5100549;28;20467;-90
2021/07/11 00:55:07;;;;;;;9.20;7.63;;;23.10;74.50;;;;;;5100046;28;20044;-91
2021/07/11 00:57:33;;;;;;;8.73;7.68;;;23.10;74.60;;;;;;5099763;28;20027;-93
2021/07/11 00:59:59;;;;;;;9.50;7.82;;;23.10;74.70;;;;;;5099996;28;20023;-94
2021/07/11 01:02:46;;;;;;;8.85;7.53;;;23.00;74.90;;;;;;5099648;28;20110;-91
2021/07/11 01:05:13;;;;;;;8.88;7.38;;;23.00;75.80;;;;;;5100108;28;20034;-92
2021/07/11 01:07:48;;;;;;;9.48;7.35;;;23.00;75.20;;;;;;5099458;28;20107;-90
2021/07/11 01:10:31;;;;;;;8.82;6.95;;;23.00;76.30;;;;;;5099232;28;20051;-91
2021/07/11 01:12:58;;;;;;;8.10;6.63;;;22.90;77.20;;;;;;5099126;28;20023;-89
2021/07/11 01:15:25;;;;;;;8.40;6.60;;;22.80;75.80;;;;;;5099268;28;20450;-90
2021/07/11 01:17:53;;;;;;;9.32;7.07;;;22.90;76.00;;;;;;5099192;28;20032;-90
2021/07/11 01:20:37;;;;;;;7.97;6.75;;;22.80;76.20;;;;;;5117476;28;20426;-91
2021/07/11 01:23:08;;;;;;;8.23;7.00;;;22.70;77.80;;;;;;5098924;28;20032;-91
2021/07/11 01:25:46;;;;;;;8.55;6.90;;;22.70;76.70;;;;;;5098821;28;20089;-91
2021/07/11 01:28:16;;;;;;;9.95;6.85;;;22.70;77.60;;;;;;5099133;28;20031;-92
2021/07/11 01:30:43;;;;;;;8.00;6.80;;;22.60;76.60;;;;;;5097829;28;20488;-91
2021/07/11 01:33:09;;;;;;;9.65;6.97;;;22.60;76.90;;;;;;5098948;28;20020;-91
2021/07/11 01:35:37;;;;;;;9.10;7.45;;;22.60;77.00;;;;;;5117474;28;20028;-90
2021/07/11 01:38:04;;;;;;;8.40;7.07;;;22.60;77.20;;;;;;5099342;28;20459;-91
2021/07/11 01:40:31;;;;;;;9.25;6.88;;;22.60;77.30;;;;;;5099203;28;20538;-91
2021/07/11 01:42:57;;;;;;;8.63;7.00;;;22.50;77.60;;;;;;5098636;28;20051;-90
2021/07/11 01:45:24;;;;;;;8.68;6.97;;;22.50;77.90;;;;;;5098414;28;20027;-91
2021/07/11 01:47:51;;;;;;;8.73;7.30;;;22.50;77.80;;;;;;5098605;28;20141;-92
2021/07/11 01:50:18;;;;;;;9.30;7.22;;;22.50;78.00;;;;;;5098744;28;20035;-92
2021/07/11 01:52:48;;;;;;;9.20;7.60;;;22.40;78.00;;;;;;5098741;28;20115;-90
2021/07/11 01:55:14;;;;;;;8.60;7.18;;;22.40;78.30;;;;;;5099022;28;20473;-94
2021/07/11 01:57:40;;;;;;;8.55;7.20;;;22.40;78.40;;;;;;5098754;28;20058;-91
2021/07/11 02:00:13;;;;;;;9.82;8.18;;;22.30;78.50;;;;;;5098984;28;20377;-93
2021/07/11 02:02:48;;;;;;;9.40;7.90;;;22.30;79.30;;;;;;5099030;28;20106;-94
2021/07/11 02:05:16;;;;;;;9.52;8.25;;;22.30;79.40;;;;;;5099980;28;20051;-90
2021/07/11 02:07:42;;;;;;;9.07;7.40;;;22.30;79.60;;;;;;5098936;28;20050;-91
2021/07/11 02:10:11;;;;;;;9.52;7.57;;;22.30;79.40;;;;;;5098048;28;20023;-91
2021/07/11 02:12:46;;;;;;;9.70;7.78;;;22.40;80.40;;;;;;5097928;28;20027;-90
2021/07/11 02:15:13;;;;;;;8.68;6.93;;;22.40;80.10;;;;;;5098346;28;20046;-91
2021/07/11 02:17:42;;;;;;;7.88;7.07;;;22.40;79.70;;;;;;5097937;28;20067;-91
2021/07/11 02:20:09;;;;;;;9.77;7.85;;;22.50;79.60;;;;;;5098007;28;20066;-91
2021/07/11 02:22:40;;;;;;;9.98;7.25;;;22.50;79.70;;;;;;5098021;28;20484;-90
2021/07/11 02:25:06;;;;;;;10.00;7.38;;;22.50;79.70;;;;;;5098064;28;20020;-92
2021/07/11 02:27:33;;;;;;;8.25;7.15;;;22.50;79.50;;;;;;5098044;28;20073;-92
2021/07/11 02:30:06;;;;;;;8.75;7.60;;;22.50;79.70;;;;;;5098012;28;20031;-92
2021/07/11 02:33:11;;;;;;;8.60;7.00;;;22.50;79.80;;;;;;5098144;28;20035;-90
2021/07/11 02:35:43;;;;;;;8.40;6.90;;;22.50;82.70;;;;;;5095737;28;20032;-92
2021/07/11 02:38:11;;;;;;;8.95;6.80;;;22.50;81.10;;;;;;5098143;28;20027;-90
2021/07/11 02:40:37;;;;;;;9.63;6.78;;;22.50;80.00;;;;;;5115940;28;20076;-92
2021/07/11 02:43:07;;;;;;;9.60;7.63;;;22.50;80.20;;;;;;5115769;28;20027;-93
2021/07/11 02:45:35;;;;;;;8.98;7.05;;;22.60;80.40;;;;;;5098684;28;20031;-91
2021/07/11 02:48:03;;;;;;;8.60;7.03;;;22.60;80.30;;;;;;5098216;28;20169;-89
2021/07/11 02:50:30;;;;;;;8.48;6.90;;;22.60;80.90;;;;;;5097207;28;20375;-90
2021/07/11 02:52:57;;;;;;;8.75;7.38;;;22.60;80.30;;;;;;5097477;28;20114;-91
2021/07/11 02:55:30;;;;;;;9.88;7.63;;;22.60;80.40;;;;;;5115276;28;20024;-92
2021/07/11 02:58:00;;;;;;;8.63;7.50;;;22.60;80.80;;;;;;5115406;28;20461;-92
2021/07/11 03:00:26;;;;;;;8.60;7.28;;;22.60;80.70;;;;;;5097579;28;20028;-91
2021/07/11 03:02:55;;;;;;;9.57;7.55;;;22.60;80.80;;;;;;5097554;28;20046;-92
2021/07/11 03:05:22;;;;;;;8.23;6.97;;;22.70;80.80;;;;;;5115750;28;20051;-92
2021/07/11 03:07:48;;;;;;;8.40;7.03;;;22.70;80.70;;;;;;5097729;28;20053;-92
2021/07/11 03:10:15;;;;;;;10.80;8.98;;;22.80;80.50;;;;;;5097249;28;20053;-91
2021/07/11 03:12:42;;;;;;;13.20;9.70;;;22.80;80.40;;;;;;5116328;28;20031;-90
2021/07/11 03:15:09;;;;;;;17.23;11.95;;;22.90;80.30;;;;;;5115900;28;20168;-92
2021/07/11 03:17:35;;;;;;;16.00;12.73;;;22.90;80.10;;;;;;5096842;28;20031;-92
2021/07/11 03:20:03;;;;;;;16.55;13.48;;;23.00;79.80;;;;;;5097121;28;20027;-92
2021/07/11 03:22:31;;;;;;;14.77;11.88;;;23.00;79.50;;;;;;5097441;28;20051;-91
2021/07/11 03:25:00;;;;;;;12.68;10.10;;;23.10;79.50;;;;;;5097429;28;20024;-92
2021/07/11 03:27:29;;;;;;;11.63;10.40;;;23.20;79.40;;;;;;5097114;28;20029;-92
2021/07/11 03:30:09;;;;;;;11.57;9.07;;;23.20;79.30;;;;;;5097368;28;20028;-92
2021/07/11 03:32:43;;;;;;;11.43;8.57;;;23.30;79.50;;;;;;5098023;28;20034;-92
2021/07/11 03:35:11;;;;;;;10.10;8.35;;;23.40;78.70;;;;;;5097478;28;20031;-91
2021/07/11 03:37:41;;;;;;;9.60;7.00;;;23.40;78.50;;;;;;5101144;28;20066;-92
2021/07/11 03:40:09;;;;;;;9.10;7.45;;;23.50;78.30;;;;;;5111805;28;20042;-92
2021/07/11 03:42:42;;;;;;;9.48;6.85;;;23.50;77.90;;;;;;5111439;28;20030;-93
2021/07/11 03:45:10;;;;;;;9.00;6.68;;;23.60;77.60;;;;;;5111722;28;20031;-92
2021/07/11 03:47:42;;;;;;;10.75;6.95;;;23.70;77.20;;;;;;5116986;28;20048;-89
2021/07/11 03:50:10;;;;;;;12.35;7.80;;;23.70;76.90;;;;;;5117461;28;20036;-88
2021/07/11 03:52:42;;;;;;;8.68;6.88;;;23.70;76.50;;;;;;5115567;28;20075;-90
2021/07/11 03:55:09;;;;;;;9.52;6.38;;;23.80;76.30;;;;;;5114608;28;20450;-88
2021/07/11 03:57:36;;;;;;;8.68;6.43;;;23.90;76.00;;;;;;5105736;28;20382;-92
2021/07/11 04:00:04;;;;;;;7.50;5.75;;;24.00;75.70;;;;;;5117157;28;20035;-91
2021/07/11 04:02:32;;;;;;;8.18;6.18;;;24.10;75.30;;;;;;5098029;28;20026;-91
2021/07/11 04:04:59;;;;;;;8.52;6.15;;;24.10;74.70;;;;;;5097321;28;20076;-91
2021/07/11 04:07:26;;;;;;;8.10;5.97;;;24.20;74.40;;;;;;5114805;28;20053;-90
2021/07/11 04:09:55;;;;;;;7.75;6.32;;;24.30;74.10;;;;;;5096967;28;20104;-90
2021/07/11 04:12:21;;;;;;;7.68;6.28;;;24.30;73.80;;;;;;5096273;28;20024;-89
2021/07/11 04:14:47;;;;;;;8.48;6.00;;;24.30;73.20;;;;;;5096259;28;20030;-90
2021/07/11 04:17:13;;;;;;;8.30;6.32;;;24.40;73.50;;;;;;5096747;28;20038;-92
2021/07/11 04:19:43;;;;;;;8.85;6.00;;;24.50;72.50;;;;;;5096229;28;20043;-88
2021/07/11 04:22:13;;;;;;;8.05;6.53;;;24.60;72.30;;;;;;5095727;28;20409;-94
2021/07/11 04:24:41;;;;;;;7.05;5.70;;;24.60;72.00;;;;;;5112413;28;20024;-90
2021/07/11 04:27:08;;;;;;;7.25;5.55;;;24.70;71.70;;;;;;5096846;28;20342;-92
2021/07/11 04:29:34;;;;;;;6.95;5.68;;;24.70;71.50;;;;;;5095971;28;20024;-90
2021/07/11 04:32:01;;;;;;;7.65;6.10;;;24.80;71.40;;;;;;5093757;28;20051;-89
2021/07/11 04:34:34;;;;;;;6.25;5.43;;;24.80;71.30;;;;;;5092663;28;20474;-90
2021/07/11 04:37:02;;;;;;;6.00;5.40;;;24.90;71.10;;;;;;5094025;28;20059;-90
2021/07/11 04:39:28;;;;;;;5.72;4.90;;;25.00;71.00;;;;;;5095441;28;20370;-90
2021/07/11 04:41:55;;;;;;;6.10;4.93;;;25.10;70.80;;;;;;5095686;28;20044;-90
2021/07/11 04:44:24;;;;;;;6.38;4.75;;;25.10;70.50;;;;;;5096378;28;20028;-89
2021/07/11 04:46:50;;;;;;;6.38;5.28;;;25.20;70.30;;;;;;5095916;28;20020;-89
2021/07/11 04:49:15;;;;;;;5.38;4.40;;;25.30;70.10;;;;;;5114310;28;20461;-89
2021/07/11 04:51:41;;;;;;;5.53;4.82;;;25.40;69.50;;;;;;5101962;28;20040;-89
2021/07/11 04:54:08;;;;;;;5.95;4.85;;;25.40;68.90;;;;;;5092532;28;20024;-91
2021/07/11 04:56:34;;;;;;;7.13;4.68;;;25.50;68.70;;;;;;5092715;28;20024;-90
2021/07/11 04:59:00;;;;;;;6.53;5.00;;;25.60;68.40;;;;;;5092234;28;20100;-90
2021/07/11 05:01:26;;;;;;;5.32;4.28;;;25.70;68.10;;;;;;5092698;28;20469;-91
2021/07/11 05:03:53;;;;;;;5.20;3.80;;;25.70;68.00;;;;;;5092490;28;20051;-90
2021/07/11 05:06:19;;;;;;;4.45;3.80;;;25.80;67.90;;;;;;5096116;28;20024;-90
2021/07/11 05:08:45;;;;;;;4.90;3.88;;;25.90;67.70;;;;;;5096076;28;20028;-90
2021/07/11 05:11:10;;;;;;;6.13;4.75;;;26.00;67.30;;;;;;5095772;28;20093;-91
2021/07/11 05:13:36;;;;;;;6.05;4.70;;;26.00;67.10;;;;;;5096197;28;20458;-90
2021/07/11 05:16:03;;;;;;;6.28;4.75;;;26.00;66.80;;;;;;5096091;28;20507;-90
2021/07/11 05:18:28;;;;;;;6.55;4.45;;;26.10;66.60;;;;;;5096627;28;20060;-88
2021/07/11 05:20:57;;;;;;;5.65;4.30;;;26.10;66.40;;;;;;5096376;28;20485;-91
2021/07/11 05:23:23;;;;;;;5.00;4.10;;;26.20;66.30;;;;;;5096346;28;20027;-89
2021/07/11 05:25:49;;;;;;;5.50;4.40;;;26.30;66.20;;;;;;5095635;28;20454;-90
2021/07/11 05:28:17;;;;;;;4.78;4.13;;;26.30;66.10;;;;;;5095457;28;20028;-89
2021/07/11 05:30:43;;;;;;;5.05;4.22;;;26.40;66.00;;;;;;5098306;28;20024;-90
2021/07/11 05:33:08;;;;;;;6.35;5.07;;;26.40;65.70;;;;;;5095757;28;20028;-91
2021/07/11 05:35:34;;;;;;;5.65;4.78;;;26.50;65.60;;;;;;5095612;28;20416;-90
2021/07/11 05:38:00;;;;;;;5.53;4.38;;;26.60;65.40;;;;;;5095538;28;20024;-89
2021/07/11 05:40:26;;;;;;;5.25;4.63;;;26.70;65.10;;;;;;5096768;28;20402;-89
2021/07/11 05:42:52;;;;;;;5.07;4.15;;;26.70;64.50;;;;;;5098471;28;20027;-90
2021/07/11 05:45:18;;;;;;;7.15;4.63;;;26.80;64.30;;;;;;5101210;28;20032;-91
2021/07/11 05:47:44;;;;;;;6.07;4.10;;;26.90;63.90;;;;;;5098599;28;20110;-91
2021/07/11 05:50:10;;;;;;;6.38;4.40;;;26.90;63.20;;;;;;5096677;28;20056;-88
2021/07/11 05:52:36;;;;;;;5.38;4.25;;;27.00;63.00;;;;;;5091715;28;20040;-90
2021/07/11 05:55:03;;;;;;;5.53;4.22;;;27.10;62.80;;;;;;5083184;28;20025;-91
2021/07/11 05:57:30;;;;;;;6.40;4.63;;;27.10;62.60;;;;;;5084453;28;20039;-90
2021/07/11 05:59:56;;;;;;;5.20;4.05;;;27.20;62.70;;;;;;5084767;28;20048;-90
2021/07/11 06:02:22;;;;;;;6.15;4.45;;;27.30;62.50;;;;;;5086241;28;20484;-88
2021/07/11 06:04:48;;;;;;;6.50;4.22;;;27.30;62.00;;;;;;5094609;28;20016;-92
2021/07/11 06:07:13;;;;;;;5.68;4.75;;;27.40;61.60;;;;;;5096802;28;20503;-90
2021/07/11 06:09:39;;;;;;;5.18;4.30;;;27.50;61.60;;;;;;5094994;28;20063;-91
2021/07/11 06:12:06;;;;;;;5.03;4.15;;;27.50;61.40;;;;;;5096102;28;20110;-90
2021/07/11 06:14:35;;;;;;;5.75;4.28;;;27.50;61.30;;;;;;5094678;28;20024;-92
2021/07/11 06:17:01;;;;;;;5.60;4.70;;;27.60;61.40;;;;;;5093849;28;20066;-89
2021/07/11 06:19:27;;;;;;;7.63;5.60;;;27.60;61.30;;;;;;5096034;28;20060;-90
2021/07/11 06:21:53;;;;;;;5.10;4.25;;;27.70;61.00;;;;;;5096068;28;20028;-91
2021/07/11 06:24:20;;;;;;;6.00;4.82;;;27.80;61.10;;;;;;5095511;28;20035;-89
2021/07/11 06:26:46;;;;;;;5.80;4.70;;;27.80;60.90;;;;;;5088505;28;20074;-90
2021/07/11 06:29:13;;;;;;;4.97;4.15;;;27.90;60.60;;;;;;5074133;28;20186;-89
2021/07/11 06:31:39;;;;;;;4.75;4.10;;;28.00;60.50;;;;;;5075474;28;20024;-89
2021/07/11 06:34:05;;;;;;;4.60;4.07;;;28.10;60.50;;;;;;5089045;28;20028;-91
2021/07/11 06:36:31;;;;;;;5.15;4.00;;;28.10;60.30;;;;;;5091381;28;20035;-91
2021/07/11 06:38:58;;;;;;;5.25;3.90;;;28.20;59.80;;;;;;5093550;28;20046;-92
2021/07/11 06:41:24;;;;;;;3.95;3.40;;;28.30;59.60;;;;;;5095605;28;20115;-91
2021/07/11 06:43:50;;;;;;;3.97;3.50;;;28.30;59.50;;;;;;5093915;28;20458;-88
2021/07/11 06:46:16;;;;;;;4.07;3.60;;;28.40;59.40;;;;;;5095792;28;20016;-90
2021/07/11 06:48:41;;;;;;;4.10;3.53;;;28.50;59.00;;;;;;5094926;28;20066;-88
2021/07/11 06:51:07;;;;;;;5.20;3.40;;;28.60;58.70;;;;;;5094813;28;20074;-88
2021/07/11 06:53:33;;;;;;;5.43;3.45;;;28.70;58.30;;;;;;5088637;28;20039;-89
2021/07/11 06:55:59;;;;;;;4.63;3.70;;;28.80;58.10;;;;;;5081122;28;20054;-90
2021/07/11 06:58:24;;;;;;;4.88;3.20;;;28.80;58.00;;;;;;5094383;28;20059;-88
2021/07/11 07:00:50;;;;;;;4.18;3.33;;;28.90;57.80;;;;;;5095047;28;20039;-89
2021/07/11 07:03:16;;;;;;;3.63;3.25;;;29.00;57.70;;;;;;5094260;28;20085;-94
2021/07/11 07:05:42;;;;;;;3.80;3.13;;;29.10;57.60;;;;;;5095659;28;20024;-93
2021/07/11 07:08:08;;;;;;;4.60;3.47;;;29.30;57.50;;;;;;5094124;28;20389;-92
2021/07/11 07:10:33;;;;;;;4.50;3.80;;;29.40;57.10;;;;;;5095969;28;20020;-94
2021/07/11 07:12:59;;;;;;;4.57;3.60;;;29.40;56.90;;;;;;5088526;28;20531;-94
2021/07/11 07:15:25;;;;;;;7.03;3.75;;;29.50;56.80;;;;;;5095272;28;20594;-93
2021/07/11 07:17:51;;;;;;;3.50;3.00;;;29.60;56.70;;;;;;5083983;28;20134;-93
2021/07/11 07:20:16;;;;;;;5.45;3.80;;;29.70;56.70;;;;;;5090083;28;20059;-95
2021/07/11 07:22:43;;;;;;;4.70;3.65;;;29.80;56.50;;;;;;5082121;28;20560;-93
2021/07/11 07:25:11;;;;;;;4.72;3.55;;;30.00;56.30;;;;;;5088220;28;20462;-93
2021/07/11 07:27:37;;;;;;;5.55;4.18;;;30.10;56.10;;;;;;5091371;28;20028;-92
2021/07/11 07:30:07;;;;;;;4.90;3.80;;;30.20;55.90;;;;;;5093025;28;20032;-94
2021/07/11 07:32:33;;;;;;;5.63;3.58;;;30.30;55.40;;;;;;5090991;28;20030;-94
2021/07/11 07:34:59;;;;;;;4.80;3.47;;;30.40;55.30;;;;;;5085876;28;20024;-92
2021/07/11 07:37:25;;;;;;;5.93;3.70;;;30.40;55.10;;;;;;5085947;28;20051;-91
2021/07/11 07:39:53;;;;;;;5.13;4.15;;;30.50;54.90;;;;;;5086100;28;20028;-90
2021/07/11 07:42:18;;;;;;;6.40;4.20;;;30.60;54.70;;;;;;5087538;28;20111;-91
2021/07/11 07:44:44;;;;;;;3.88;3.45;;;30.70;54.60;;;;;;5071964;28;20158;-89
2021/07/11 07:47:10;;;;;;;4.35;3.58;;;30.70;54.40;;;;;;5070714;28;20032;-90
2021/07/11 07:49:36;;;;;;;4.97;3.88;;;30.90;54.30;;;;;;5071832;28;20028;-90
2021/07/11 07:52:03;;;;;;;4.45;3.70;;;30.90;54.30;;;;;;5086283;28;20044;-89
2021/07/11 07:54:28;;;;;;;4.50;3.60;;;31.00;53.80;;;;;;5090361;28;20065;-89
2021/07/11 07:56:54;;;;;;;3.90;3.38;;;31.00;53.70;;;;;;5090409;28;20028;-90
2021/07/11 07:59:20;;;;;;;4.88;3.72;;;31.10;53.80;;;;;;5091873;28;20127;-91
2021/07/11 08:01:46;;;;;;;4.25;3.53;;;31.20;53.60;;;;;;5098905;28;20019;-91
2021/07/11 08:04:12;;;;;;;3.60;3.20;;;31.30;53.50;;;;;;5121146;28;20473;-91
2021/07/11 08:06:38;;;;;;;4.05;3.60;;;31.30;53.60;;;;;;5123281;28;20083;-88
2021/07/11 08:09:04;;;;;;;3.45;3.15;;;31.50;53.50;;;;;;5123676;28;20027;-89
2021/07/11 08:11:30;;;;;;;4.18;3.50;;;31.60;53.00;;;;;;5102414;28;20089;-90
2021/07/11 08:13:56;;;;;;;3.80;3.35;;;31.70;52.90;;;;;;5100363;28;20027;-88
2021/07/11 08:16:21;;;;;;;4.28;3.17;;;31.70;52.70;;;;;;5101318;28;20513;-91
2021/07/11 08:18:48;;;;;;;3.80;3.10;;;31.90;52.60;;;;;;5113440;28;20450;-92
2021/07/11 08:21:14;;;;;;;3.50;3.20;;;32.00;52.70;;;;;;5095774;28;20053;-93
2021/07/11 08:23:40;;;;;;;3.90;3.17;;;32.20;53.30;;;;;;5103369;28;20028;-91
2021/07/11 08:26:06;;;;;;;3.83;3.42;;;32.50;53.50;;;;;;5117076;28;20526;-92
2021/07/11 08:28:32;;;;;;;5.07;3.40;;;32.80;53.30;;;;;;5113863;28;20489;-90
2021/07/11 08:30:58;;;;;;;3.78;3.40;;;33.10;53.50;;;;;;5097236;28;20111;-91
2021/07/11 08:33:23;;;;;;;3.30;3.00;;;33.40;53.20;;;;;;5096665;28;20031;-92
2021/07/11 08:35:49;;;;;;;4.68;3.42;;;33.80;53.20;;;;;;5112205;28;20439;-92
2021/07/11 08:38:15;;;;;;;3.30;3.00;;;34.20;53.10;;;;;;5093602;28;20099;-92
2021/07/11 08:40:40;;;;;;;5.40;3.60;;;34.60;52.80;;;;;;5114720;28;20035;-91
2021/07/11 08:43:08;;;;;;;5.50;3.53;;;35.00;52.30;;;;;;5115358;28;20379;-91
2021/07/11 08:45:34;;;;;;;4.00;3.60;;;35.40;51.90;;;;;;5097117;28;20020;-91
2021/07/11 08:48:01;;;;;;;4.10;3.70;;;35.70;51.40;;;;;;5109181;28;20035;-92
2021/07/11 08:50:28;;;;;;;4.28;3.72;;;36.00;49.80;;;;;;5114444;28;20008;-92
2021/07/11 08:52:55;;;;;;;4.07;3.65;;;36.20;49.00;;;;;;5098394;28;20474;-92
2021/07/11 08:55:24;;;;;;;4.57;3.88;;;36.50;48.70;;;;;;5110821;28;20013;-92
2021/07/11 08:57:52;;;;;;;5.20;3.50;;;36.70;48.00;;;;;;5097633;28;20020;-93
2021/07/11 09:00:22;;;;;;;4.70;4.30;;;36.90;47.70;;;;;;5096505;28;20031;-93
2021/07/11 09:02:48;;;;;;;5.10;4.03;;;37.20;47.40;;;;;;5094518;28;20055;-91
2021/07/11 09:05:27;;;;;;;4.82;3.70;;;37.30;46.80;;;;;;5107873;28;20085;-92
2021/07/11 09:08:02;;;;;;;4.30;3.42;;;37.60;45.00;;;;;;5096475;28;20055;-93
2021/07/11 09:10:37;;;;;;;4.07;3.67;;;37.90;43.90;;;;;;5110611;28;20042;-91
2021/07/11 09:13:15;;;;;;;4.05;3.65;;;38.10;43.60;;;;;;5115930;28;20169;-93
2021/07/11 09:15:47;;;;;;;4.18;3.45;;;38.30;43.10;;;;;;5096850;28;20020;-93
2021/07/11 09:18:15;;;;;;;4.57;3.35;;;38.30;43.80;;;;;;5097265;28;20047;-91
2021/07/11 09:20:56;;;;;;;3.75;3.35;;;38.30;43.40;;;;;;5115400;28;20383;-90
2021/07/11 09:23:23;;;;;;;3.75;3.45;;;38.40;37.90;;;;;;5096102;28;20104;-90
2021/07/11 09:26:03;;;;;;;3.88;3.45;;;38.30;42.20;;;;;;5097476;28;20149;-92
2021/07/11 09:28:31;;;;;;;4.18;3.40;;;38.20;39.30;;;;;;5097439;28;20047;-91
2021/07/11 09:31:12;;;;;;;3.90;3.42;;;38.00;41.20;;;;;;5115573;28;20145;-90
2021/07/11 09:33:43;;;;;;;3.83;3.53;;;38.00;40.30;;;;;;5114671;28;20088;-90
2021/07/11 09:36:15;;;;;;;3.92;3.58;;;38.10;41.00;;;;;;5095891;28;20442;-89
2021/07/11 09:38:45;;;;;;;4.10;3.70;;;38.30;40.80;;;;;;5095972;28;20031;-89
2021/07/11 09:41:34;;;;;;;3.70;3.40;;;38.60;40.50;;;;;;5114776;28;20498;-89
2021/07/11 09:44:04;;;;;;;3.50;3.20;;;39.00;39.60;;;;;;5095510;28;20154;-90
2021/07/11 09:46:34;;;;;;;3.72;3.25;;;39.20;39.60;;;;;;5114220;28;20390;-87
2021/07/11 09:49:03;;;;;;;3.70;3.40;;;39.30;39.00;;;;;;5095835;28;20038;-90
2021/07/11 09:51:29;;;;;;;4.82;3.70;;;39.40;38.80;;;;;;5095383;28;20486;-90
2021/07/11 09:54:15;;;;;;;3.83;3.53;;;39.50;38.70;;;;;;5095869;28;20034;-89
2021/07/11 09:56:46;;;;;;;4.00;3.60;;;39.70;35.10;;;;;;5095911;28;20489;-89
2021/07/11 09:59:15;;;;;;;4.45;3.63;;;39.70;38.00;;;;;;5096072;28;20085;-89
2021/07/11 10:01:43;;;;;;;4.32;3.92;;;39.80;37.70;;;;;;5113749;28;20031;-93
2021/07/11 10:04:10;;;;;;;4.03;3.63;;;39.90;37.80;;;;;;5114176;28;20032;-92
2021/07/11 10:06:38;;;;;;;3.95;3.55;;;40.00;37.70;;;;;;5095300;28;20020;-89
2021/07/11 10:09:05;;;;;;;4.73;3.30;;;40.00;37.10;;;;;;5095723;28;20057;-83
2021/07/11 10:11:31;;;;;;;3.53;3.22;;;40.10;37.30;;;;;;5113648;28;20039;-83
2021/07/11 10:13:57;;;;;;;4.65;3.67;;;40.10;37.00;;;;;;5112979;28;20024;-85
2021/07/11 10:16:28;;;;;;;4.25;3.70;;;40.10;36.90;;;;;;5112751;28;20031;-84
2021/07/11 10:18:59;;;;;;;4.03;3.72;;;40.30;36.80;;;;;;5094871;28;20040;-86
2021/07/11 10:21:30;;;;;;;4.25;3.75;;;40.30;36.20;;;;;;5110471;28;20059;-85
2021/07/11 10:23:56;;;;;;;4.18;3.50;;;40.30;35.80;;;;;;5113506;28;20020;-85
2021/07/11 10:26:22;;;;;;;4.15;3.78;;;40.30;36.10;;;;;;5094475;28;20539;-85
2021/07/11 10:28:51;;;;;;;3.58;3.20;;;40.50;36.40;;;;;;5094370;28;20023;-84
2021/07/11 10:31:26;;;;;;;4.05;3.70;;;40.50;36.30;;;;;;5113075;28;20024;-83
2021/07/11 10:33:56;;;;;;;3.63;3.33;;;40.50;36.10;;;;;;5113358;28;20058;-84
2021/07/11 10:36:30;;;;;;;3.65;3.35;;;40.60;36.00;;;;;;5113124;28;20027;-84
2021/07/11 10:38:57;;;;;;;5.85;3.65;;;40.70;35.60;;;;;;5094902;28;20054;-84
2021/07/11 10:41:28;;;;;;;3.70;3.20;;;40.70;36.10;;;;;;5094164;28;20030;-84
2021/07/11 10:44:00;;;;;;;4.75;4.35;;;40.80;36.00;;;;;;5112906;28;20035;-85
2021/07/11 10:46:36;;;;;;;4.45;3.88;;;40.90;35.00;;;;;;5094576;28;20030;-85
2021/07/11 10:49:21;;;;;;;3.88;3.58;;;41.00;33.60;;;;;;5094619;28;20072;-84
2021/07/11 10:51:59;;;;;;;4.53;3.78;;;41.10;34.20;;;;;;5113038;28;20101;-84
2021/07/11 10:54:32;;;;;;;3.80;3.40;;;41.20;34.50;;;;;;5093824;28;20130;-84
2021/07/11 10:57:03;;;;;;;5.80;4.07;;;41.30;34.10;;;;;;5094578;28;20027;-85
2021/07/11 10:59:33;;;;;;;4.22;3.83;;;41.40;34.80;;;;;;5094566;28;20024;-84
2021/07/11 11:02:00;;;;;;;3.88;3.50;;;41.40;34.40;;;;;;5112620;28;20047;-84
2021/07/11 11:04:27;;;;;;;4.32;3.92;;;41.50;34.40;;;;;;5093891;28;20032;-85
2021/07/11 11:06:53;;;;;;;4.18;3.78;;;41.50;34.10;;;;;;5112201;28;20073;-84
2021/07/11 11:09:40;;;;;;;4.85;4.40;;;41.60;33.80;;;;;;5094140;28;20035;-85
2021/07/11 11:12:21;;;;;;;4.15;3.83;;;41.70;31.50;;;;;;5094237;28;20110;-84
2021/07/11 11:14:59;;;;;;;4.40;3.92;;;41.70;31.60;;;;;;5093411;28;20052;-84
2021/07/11 11:17:35;;;;;;;4.25;3.80;;;41.80;32.70;;;;;;5086832;28;20036;-84
2021/07/11 11:20:05;;;;;;;4.35;3.95;;;41.80;31.80;;;;;;5090636;28;20036;-84
2021/07/11 11:22:33;;;;;;;4.20;3.80;;;41.90;33.60;;;;;;5092313;28;20115;-84
2021/07/11 11:25:03;;;;;;;4.10;3.70;;;41.90;33.60;;;;;;5094229;28;20031;-86
2021/07/11 11:27:40;;;;;;;4.53;4.10;;;41.90;33.30;;;;;;5094983;28;20111;-84
2021/07/11 11:30:18;;;;;;;4.47;3.65;;;42.00;32.40;;;;;;5093235;28;20031;-84
2021/07/11 11:32:53;;;;;;;4.65;3.92;;;42.10;32.30;;;;;;5094127;28;20070;-83
2021/07/11 11:35:21;;;;;;;4.38;3.97;;;42.20;31.70;;;;;;5094388;28;20070;-86
2021/07/11 11:37:53;;;;;;;5.05;4.28;;;42.10;33.10;;;;;;5092879;28;20020;-86
2021/07/11 11:40:21;;;;;;;5.05;4.50;;;42.10;32.50;;;;;;5092770;28;20058;-85
2021/07/11 11:42:49;;;;;;;4.97;4.47;;;41.90;32.50;;;;;;5094638;28;20474;-84
2021/07/11 11:45:17;;;;;;;5.25;4.60;;;41.80;32.40;;;;;;5093420;28;20283;-85
2021/07/11 11:47:43;;;;;;;5.70;4.87;;;41.70;32.30;;;;;;5093568;28;20411;-84
2021/07/11 11:50:26;;;;;;;4.80;4.40;;;41.50;32.10;;;;;;5092883;28;20062;-85
2021/07/11 11:53:06;;;;;;;6.85;4.55;;;41.50;31.10;;;;;;5093035;28;20048;-85
2021/07/11 11:55:33;;;;;;;5.70;4.80;;;41.40;31.20;;;;;;5093415;28;20519;-84
2021/07/11 11:58:04;;;;;;;4.80;4.38;;;41.30;32.20;;;;;;5093550;28;20077;-86
2021/07/11 12:00:29;;;;;;;4.40;4.00;;;41.30;32.10;;;;;;5093567;28;20047;-84
2021/07/11 12:03:07;;;;;;;4.65;4.20;;;41.30;32.40;;;;;;5092711;28;20028;-84
2021/07/11 12:05:35;;;;;;;6.15;4.53;;;41.40;32.70;;;;;;5093137;28;20075;-84
2021/07/11 12:08:01;;;;;;;;;;;41.40;32.60;;;;;;5094683;28;20078;-84
2021/07/11 12:10:28;;;;;;;5.10;4.60;;;41.10;31.40;;;;;;5094356;28;19908;-85
2021/07/11 12:12:59;;;;;;;4.70;4.30;;;41.20;32.60;;;;;;5094210;28;20039;-85
2021/07/11 12:15:37;;;;;;;4.95;4.50;;;41.30;32.20;;;;;;5092926;28;20070;-85
2021/07/11 12:18:07;;;;;;;5.10;4.60;;;41.40;31.80;;;;;;5094824;28;20074;-85
2021/07/11 12:20:38;;;;;;;5.22;4.72;;;41.40;32.40;;;;;;5093982;28;20055;-85
2021/07/11 12:23:09;;;;;;;4.75;4.35;;;41.40;32.20;;;;;;5090326;28;20032;-86
2021/07/11 12:25:38;;;;;;;4.88;4.38;;;41.50;32.00;;;;;;5091095;28;20028;-86
2021/07/11 12:28:07;;;;;;;6.80;4.55;;;41.40;32.10;;;;;;5090053;28;20032;-90
2021/07/11 12:30:44;;;;;;;5.28;4.65;;;41.40;32.20;;;;;;5091853;28;20024;-91
2021/07/11 12:33:11;;;;;;;5.00;4.53;;;41.40;32.30;;;;;;5091636;28;20025;-88
2021/07/11 12:35:52;;;;;;;5.40;4.90;;;41.50;32.30;;;;;;5090162;28;20028;-87
2021/07/11 12:38:34;;;;;;;4.63;4.22;;;41.70;31.50;;;;;;5101363;28;20035;-88
2021/07/11 12:41:02;;;;;;;4.93;4.43;;;41.80;32.10;;;;;;5092274;28;20122;-87
2021/07/11 12:43:30;;;;;;;5.23;4.60;;;42.10;32.40;;;;;;5093643;28;20439;-87
2021/07/11 12:46:16;;;;;;;;;;;42.30;32.50;;;;;;5111391;28;20031;-88
2021/07/11 12:48:49;;;;;;;5.07;4.57;;;42.20;31.90;;;;;;5089858;28;19914;-88
2021/07/11 12:51:33;;;;;;;4.88;4.38;;;42.50;31.90;;;;;;5110254;28;20063;-88
2021/07/11 12:54:11;;;;;;;5.88;5.07;;;42.80;31.60;;;;;;5092492;28;20068;-89